FW0218 Weather Reports


Display with metric or nautical units.
time (UTC)temp
F
wind
direction
speed
MPH
gust
MPH
rain 1hr
in
rain 24hr
in
rain mn
in
humidity
%
barometer
mb
20181216021338 33 262 0.0 0.0 0.00 0.62 0.58 97 863.7
20181216015835 34 264 0.0 0.0 0.00 0.62 0.58 97 863.3
20181216012909 36 267 0.0 0.0 0.00 0.62 0.58 97 863.2
20181216010814 37 201 0.0 0.0 0.00 0.62 0.58 97 863.5
20181216004828 36 267 0.0 0.0 0.00 0.63 0.58 97 863.6
20181216001350 37 267 0.0 0.0 0.00 0.63 0.58 97 863.7
20181215235846 37 267 0.0 0.0 0.00 0.63 0.58 97 863.7
20181215232853 37 267 0.0 0.0 0.00 0.64 0.58 97 863.4
20181215231347 38 267 0.0 0.0 0.00 0.64 0.58 97 863.4
20181215225846 38 267 0.0 0.0 0.00 0.64 0.58 97 863.2
20181215224338 39 267 0.0 0.0 0.00 0.65 0.58 97 862.9
20181215222353 40 267 0.0 0.0 0.00 0.65 0.58 97 863.0
20181215220248 40 267 0.0 0.0 0.00 0.65 0.58 97 862.9
20181215214346 42 180 0.0 1.0 0.47 0.69 0.58 1 863.0
20181215212836 43 182 0.0 1.0 0.47 0.69 0.58 1 863.1
20181215211328 43 180 0.0 0.0 0.47 0.69 0.58 1 863.2
20181215205826 43 177 0.0 0.0 0.47 0.69 0.58 1 862.8
20181215202908 41 267 0.0 0.0 0.00 0.67 0.12 97 863.1
20181215195917 42 267 0.0 0.0 0.00 0.67 0.12 97 863.2
20181215194358 42 267 0.0 0.0 0.00 0.75 0.12 97 863.1
20181215191543 42 267 0.0 0.0 0.00 0.75 0.12 97 863.2
20181215185812 42 267 0.0 0.0 0.00 0.75 0.12 97 863.5
20181215183037 43 267 0.0 0.0 0.00 0.80 0.12 96 864.0
20181215181325 43 267 0.0 0.0 0.00 0.80 0.12 96 864.1
20181215175823 44 267 0.0 0.0 0.00 0.80 0.12 97 864.2
20181215173153 44 267 0.0 0.0 0.00 0.80 0.12 96 864.6
20181215171335 44 267 0.0 0.0 0.00 0.80 0.12 97 864.6
20181215165835 44 267 0.0 0.0 0.00 0.80 0.12 97 864.9
20181215162850 43 267 0.0 0.0 0.00 0.87 0.12 96 865.2
20181215161339 43 267 0.0 0.0 0.00 0.87 0.12 96 865.6
20181215154352 43 267 0.0 0.0 0.00 0.92 0.12 96 865.8
20181215152845 45 214 0.0 2.0 0.01 0.92 0.12 1 865.7
20181215151340 44 184 0.0 3.0 0.01 0.92 0.12 1 866.0
20181215145834 44 177 0.0 3.0 0.01 0.92 0.12 1 866.1
20181215142843 43 185 0.0 2.0 0.01 0.98 0.11 1 866.0
20181215140147 43 173 0.0 2.0 0.01 0.98 0.11 1 866.1
20181215134332 43 195 0.0 3.0 0.00 1.02 0.10 1 865.9
20181215131722 43 188 0.0 3.0 0.00 1.02 0.10 1 865.6
20181215130017 43 181 0.0 3.0 0.00 1.02 0.10 1 865.7
20181215124346 44 180 0.0 2.0 0.00 1.09 0.10 1 865.4
20181215115933 44 187 0.0 5.0 0.01 1.09 0.10 1 865.1
20181215112849 45 158 0.0 4.0 0.01 1.49 0.10 1 864.7
20181215110016 47 267 0.0 0.0 0.01 1.48 0.09 96 864.7
20181215104350 48 265 0.0 0.0 0.02 1.51 0.09 96 865.1
20181215101425 48 265 0.0 0.0 0.05 1.51 0.09 96 866.1
20181215094500 47 265 0.0 0.0 0.04 1.51 0.07 96 866.9
20181215092842 47 265 0.0 0.0 0.02 1.50 0.06 97 866.7
20181215091337 47 265 0.0 0.0 0.02 1.49 0.05 97 866.6
20181215084357 47 267 0.0 0.0 0.02 1.47 0.03 97 866.5
20181215082858 47 267 0.0 0.0 0.02 1.47 0.03 97 867.0
20181215081347 47 267 0.0 0.0 0.02 1.47 0.03 97 867.1
20181215075841 48 267 0.0 0.0 0.01 1.46 0.02 97 867.3
20181215072858 47 266 0.0 0.0 0.00 1.46 0.02 97 867.3
20181215070044 46 266 0.0 0.0 0.01 1.46 0.02 97 867.4
20181215064454 43 185 0.0 3.0 0.02 1.46 0.02 1 866.8
20181215061414 44 192 0.0 3.0 0.01 1.45 0.01 1 867.1
20181215055845 46 266 0.0 0.0 0.01 1.45 0.01 97 867.1
20181215052902 45 266 0.0 0.0 0.01 1.44 0.00 97 867.3
20181215050217 45 267 0.0 0.0 0.01 1.44 0.00 97 867.9
20181215042853 45 267 0.0 0.0 0.01 1.43 1.43 97 868.0
20181215041342 45 266 0.0 0.0 0.01 1.43 1.43 97 867.8
20181215035836 45 266 0.0 0.0 0.02 1.43 1.43 97 867.9
20181215033042 45 267 0.0 0.0 0.02 1.43 1.43 97 867.8
20181215031340 44 266 0.0 0.0 0.02 1.43 1.43 97 867.9
20181215024744 43 266 0.0 0.0 0.00 1.41 1.41 97 868.5
20181215022841 42 266 0.0 0.0 0.00 1.41 1.41 97 868.4